Wheeling, Illinois
Current Conditions -  °F | °C
As of 4:52 AM on Friday 28 Nov 2014 (Local Time) from KPWK Reporting Station
Overcast Overcast  
Wind Chill: 11°   Ceiling: 7000
Heat Index: 20°   Visibility: 10mi
Dew Point: 12°   Wind: 7mph
Humidity: 71%   Direction: 190°S
Pressure: 30.34"   Gusts: NA
Location:  42.14°N, 87.92°W
Report Text: KPWK 281052Z AUTO 19006KT 10SM BKN070 OVC090 M07/M11 A3034 RMK AO2 SLP285 T10671111
Loading
Personal Weather Stations






























Interactive Weather Map New forecast layout! Learn more

10-Day Weather Forecast

Advertisements
Track Severe Weather on mobile